sensor_id;sensor_type;location;lat;lon;timestamp;P1;durP1;ratioP1;P2;durP2;ratioP2
59189;SDS011;50749;51.636;4.948;2023-11-18T00:01:23;6.95;;;4.20;;
59189;SDS011;50749;51.636;4.948;2023-11-18T00:03:49;9.90;;;4.78;;
59189;SDS011;50749;51.636;4.948;2023-11-18T00:06:15;7.18;;;4.38;;
59189;SDS011;50749;51.636;4.948;2023-11-18T00:08:41;6.97;;;4.43;;
59189;SDS011;50749;51.636;4.948;2023-11-18T00:11:07;7.50;;;4.30;;
59189;SDS011;50749;51.636;4.948;2023-11-18T00:13:34;6.05;;;3.83;;
59189;SDS011;50749;51.636;4.948;2023-11-18T00:16:00;7.65;;;4.38;;
59189;SDS011;50749;51.636;4.948;2023-11-18T00:18:26;7.50;;;4.70;;
59189;SDS011;50749;51.636;4.948;2023-11-18T00:20:51;6.68;;;4.55;;
59189;SDS011;50749;51.636;4.948;2023-11-18T00:23:17;9.32;;;4.80;;
59189;SDS011;50749;51.636;4.948;2023-11-18T00:25:43;6.30;;;4.60;;
59189;SDS011;50749;51.636;4.948;2023-11-18T00:28:11;10.80;;;4.65;;
59189;SDS011;50749;51.636;4.948;2023-11-18T00:30:40;7.95;;;5.35;;
59189;SDS011;50749;51.636;4.948;2023-11-18T00:33:06;6.43;;;4.60;;
59189;SDS011;50749;51.636;4.948;2023-11-18T00:35:31;10.23;;;4.70;;
59189;SDS011;50749;51.636;4.948;2023-11-18T00:37:59;6.25;;;4.28;;
59189;SDS011;50749;51.636;4.948;2023-11-18T00:40:25;6.47;;;3.92;;
59189;SDS011;50749;51.636;4.948;2023-11-18T00:42:51;9.63;;;4.80;;
59189;SDS011;50749;51.636;4.948;2023-11-18T00:45:16;7.05;;;4.65;;
59189;SDS011;50749;51.636;4.948;2023-11-18T00:47:43;5.32;;;4.13;;
59189;SDS011;50749;51.636;4.948;2023-11-18T00:50:09;6.85;;;4.28;;
59189;SDS011;50749;51.636;4.948;2023-11-18T00:52:35;6.45;;;4.80;;
59189;SDS011;50749;51.636;4.948;2023-11-18T00:55:04;5.45;;;4.13;;
59189;SDS011;50749;51.636;4.948;2023-11-18T00:57:32;10.45;;;5.25;;
59189;SDS011;50749;51.636;4.948;2023-11-18T00:59:57;7.20;;;4.13;;
59189;SDS011;50749;51.636;4.948;2023-11-18T01:02:24;5.55;;;4.43;;
59189;SDS011;50749;51.636;4.948;2023-11-18T01:04:49;7.25;;;4.30;;
59189;SDS011;50749;51.636;4.948;2023-11-18T01:07:16;7.93;;;4.45;;
59189;SDS011;50749;51.636;4.948;2023-11-18T01:09:41;7.35;;;4.50;;
59189;SDS011;50749;51.636;4.948;2023-11-18T01:12:07;7.75;;;4.78;;
59189;SDS011;50749;51.636;4.948;2023-11-18T01:14:38;7.22;;;4.47;;
59189;SDS011;50749;51.636;4.948;2023-11-18T01:17:07;8.27;;;4.90;;
59189;SDS011;50749;51.636;4.948;2023-11-18T01:19:37;6.85;;;4.38;;
59189;SDS011;50749;51.636;4.948;2023-11-18T01:22:03;7.15;;;4.20;;
59189;SDS011;50749;51.636;4.948;2023-11-18T01:24:31;7.68;;;4.40;;
59189;SDS011;50749;51.636;4.948;2023-11-18T01:26:58;6.57;;;4.25;;
59189;SDS011;50749;51.636;4.948;2023-11-18T01:29:25;7.40;;;4.15;;
59189;SDS011;50749;51.636;4.948;2023-11-18T01:31:51;9.52;;;4.80;;
59189;SDS011;50749;51.636;4.948;2023-11-18T01:34:18;6.30;;;4.65;;
59189;SDS011;50749;51.636;4.948;2023-11-18T01:36:47;6.78;;;4.45;;
59189;SDS011;50749;51.636;4.948;2023-11-18T01:39:15;7.80;;;4.65;;
59189;SDS011;50749;51.636;4.948;2023-11-18T01:41:43;7.38;;;4.43;;
59189;SDS011;50749;51.636;4.948;2023-11-18T01:44:09;7.78;;;5.82;;
59189;SDS011;50749;51.636;4.948;2023-11-18T01:46:35;5.55;;;4.05;;
59189;SDS011;50749;51.636;4.948;2023-11-18T01:49:02;8.07;;;4.68;;
59189;SDS011;50749;51.636;4.948;2023-11-18T01:51:29;8.88;;;4.88;;
59189;SDS011;50749;51.636;4.948;2023-11-18T01:53:56;10.20;;;4.90;;
59189;SDS011;50749;51.636;4.948;2023-11-18T01:56:25;6.35;;;4.20;;
59189;SDS011;50749;51.636;4.948;2023-11-18T01:58:52;6.57;;;4.13;;
59189;SDS011;50749;51.636;4.948;2023-11-18T02:01:18;7.00;;;5.07;;
59189;SDS011;50749;51.636;4.948;2023-11-18T02:03:44;7.07;;;4.65;;
59189;SDS011;50749;51.636;4.948;2023-11-18T02:06:10;6.03;;;4.40;;
59189;SDS011;50749;51.636;4.948;2023-11-18T02:08:36;8.43;;;5.03;;
59189;SDS011;50749;51.636;4.948;2023-11-18T02:11:10;6.53;;;3.70;;
59189;SDS011;50749;51.636;4.948;2023-11-18T02:13:43;6.55;;;4.22;;
59189;SDS011;50749;51.636;4.948;2023-11-18T02:16:15;9.57;;;4.70;;
59189;SDS011;50749;51.636;4.948;2023-11-18T02:18:43;7.28;;;4.10;;
59189;SDS011;50749;51.636;4.948;2023-11-18T02:21:12;5.75;;;4.25;;
59189;SDS011;50749;51.636;4.948;2023-11-18T02:23:40;8.85;;;5.00;;
59189;SDS011;50749;51.636;4.948;2023-11-18T02:26:07;6.35;;;4.75;;
59189;SDS011;50749;51.636;4.948;2023-11-18T02:28:34;6.47;;;4.50;;
59189;SDS011;50749;51.636;4.948;2023-11-18T02:31:09;7.13;;;4.65;;
59189;SDS011;50749;51.636;4.948;2023-11-18T02:33:49;8.20;;;4.60;;
59189;SDS011;50749;51.636;4.948;2023-11-18T02:39:08;7.50;;;4.82;;
59189;SDS011;50749;51.636;4.948;2023-11-18T02:41:41;7.63;;;4.63;;
59189;SDS011;50749;51.636;4.948;2023-11-18T02:44:10;6.47;;;4.68;;
59189;SDS011;50749;51.636;4.948;2023-11-18T02:46:43;7.05;;;4.38;;
59189;SDS011;50749;51.636;4.948;2023-11-18T02:49:09;6.32;;;4.03;;
59189;SDS011;50749;51.636;4.948;2023-11-18T02:51:35;8.55;;;4.03;;
59189;SDS011;50749;51.636;4.948;2023-11-18T02:54:05;5.03;;;3.53;;
59189;SDS011;50749;51.636;4.948;2023-11-18T02:56:32;6.60;;;4.55;;
59189;SDS011;50749;51.636;4.948;2023-11-18T02:58:58;6.50;;;4.30;;
59189;SDS011;50749;51.636;4.948;2023-11-18T03:01:24;8.30;;;4.60;;
59189;SDS011;50749;51.636;4.948;2023-11-18T03:03:50;8.70;;;4.50;;
59189;SDS011;50749;51.636;4.948;2023-11-18T03:06:16;9.30;;;5.47;;
59189;SDS011;50749;51.636;4.948;2023-11-18T03:08:42;6.28;;;4.07;;
59189;SDS011;50749;51.636;4.948;2023-11-18T03:11:07;7.00;;;4.45;;
59189;SDS011;50749;51.636;4.948;2023-11-18T03:13:35;10.77;;;5.22;;
59189;SDS011;50749;51.636;4.948;2023-11-18T03:16:01;8.52;;;5.13;;
59189;SDS011;50749;51.636;4.948;2023-11-18T03:18:28;5.85;;;4.32;;
59189;SDS011;50749;51.636;4.948;2023-11-18T03:20:54;6.07;;;4.45;;
59189;SDS011;50749;51.636;4.948;2023-11-18T03:23:20;6.40;;;4.60;;
59189;SDS011;50749;51.636;4.948;2023-11-18T03:25:46;5.55;;;3.90;;
59189;SDS011;50749;51.636;4.948;2023-11-18T03:28:12;5.32;;;4.15;;
59189;SDS011;50749;51.636;4.948;2023-11-18T03:30:39;6.97;;;4.30;;
59189;SDS011;50749;51.636;4.948;2023-11-18T03:33:07;5.75;;;3.85;;
59189;SDS011;50749;51.636;4.948;2023-11-18T03:35:36;5.82;;;3.85;;
59189;SDS011;50749;51.636;4.948;2023-11-18T03:38:02;5.50;;;4.13;;
59189;SDS011;50749;51.636;4.948;2023-11-18T03:40:29;6.28;;;4.53;;
59189;SDS011;50749;51.636;4.948;2023-11-18T03:42:55;7.32;;;5.05;;
59189;SDS011;50749;51.636;4.948;2023-11-18T03:45:21;6.18;;;3.42;;
59189;SDS011;50749;51.636;4.948;2023-11-18T03:47:48;7.18;;;4.28;;
59189;SDS011;50749;51.636;4.948;2023-11-18T03:50:15;6.13;;;4.57;;
59189;SDS011;50749;51.636;4.948;2023-11-18T03:52:42;6.70;;;4.50;;
59189;SDS011;50749;51.636;4.948;2023-11-18T03:55:07;6.40;;;4.90;;
59189;SDS011;50749;51.636;4.948;2023-11-18T03:57:34;8.10;;;4.45;;
59189;SDS011;50749;51.636;4.948;2023-11-18T04:00:00;5.93;;;4.25;;
59189;SDS011;50749;51.636;4.948;2023-11-18T04:02:26;8.32;;;4.40;;
59189;SDS011;50749;51.636;4.948;2023-11-18T04:04:51;7.43;;;4.45;;
59189;SDS011;50749;51.636;4.948;2023-11-18T04:07:17;7.78;;;5.22;;
59189;SDS011;50749;51.636;4.948;2023-11-18T04:09:43;6.65;;;4.40;;
59189;SDS011;50749;51.636;4.948;2023-11-18T04:12:09;7.45;;;4.25;;
59189;SDS011;50749;51.636;4.948;2023-11-18T04:14:36;7.88;;;4.55;;
59189;SDS011;50749;51.636;4.948;2023-11-18T04:17:02;8.93;;;4.75;;
59189;SDS011;50749;51.636;4.948;2023-11-18T04:19:28;5.90;;;4.18;;
59189;SDS011;50749;51.636;4.948;2023-11-18T04:21:54;7.97;;;4.50;;
59189;SDS011;50749;51.636;4.948;2023-11-18T04:24:20;8.73;;;4.38;;
59189;SDS011;50749;51.636;4.948;2023-11-18T04:26:45;5.82;;;3.80;;
59189;SDS011;50749;51.636;4.948;2023-11-18T04:29:13;6.18;;;4.00;;
59189;SDS011;50749;51.636;4.948;2023-11-18T04:31:39;7.38;;;3.85;;
59189;SDS011;50749;51.636;4.948;2023-11-18T04:34:05;9.40;;;4.90;;
59189;SDS011;50749;51.636;4.948;2023-11-18T04:36:31;7.47;;;3.95;;
59189;SDS011;50749;51.636;4.948;2023-11-18T04:38:57;9.80;;;4.03;;
59189;SDS011;50749;51.636;4.948;2023-11-18T04:41:23;5.07;;;3.95;;
59189;SDS011;50749;51.636;4.948;2023-11-18T04:43:48;7.63;;;4.38;;
59189;SDS011;50749;51.636;4.948;2023-11-18T04:46:15;6.50;;;3.95;;
59189;SDS011;50749;51.636;4.948;2023-11-18T04:48:40;6.13;;;3.80;;
59189;SDS011;50749;51.636;4.948;2023-11-18T04:51:06;7.55;;;3.95;;
59189;SDS011;50749;51.636;4.948;2023-11-18T04:53:32;9.07;;;4.35;;
59189;SDS011;50749;51.636;4.948;2023-11-18T04:55:58;6.30;;;3.17;;
59189;SDS011;50749;51.636;4.948;2023-11-18T04:58:23;8.85;;;5.68;;
59189;SDS011;50749;51.636;4.948;2023-11-18T05:00:49;6.82;;;3.58;;
59189;SDS011;50749;51.636;4.948;2023-11-18T05:03:18;8.32;;;4.07;;
59189;SDS011;50749;51.636;4.948;2023-11-18T05:05:44;6.60;;;4.10;;
59189;SDS011;50749;51.636;4.948;2023-11-18T05:08:19;7.75;;;3.92;;
59189;SDS011;50749;51.636;4.948;2023-11-18T05:10:49;6.45;;;3.90;;
59189;SDS011;50749;51.636;4.948;2023-11-18T05:13:15;8.57;;;4.20;;
59189;SDS011;50749;51.636;4.948;2023-11-18T05:15:43;5.57;;;3.28;;
59189;SDS011;50749;51.636;4.948;2023-11-18T05:18:10;7.80;;;4.25;;
59189;SDS011;50749;51.636;4.948;2023-11-18T05:20:39;9.70;;;4.10;;
59189;SDS011;50749;51.636;4.948;2023-11-18T05:23:09;8.35;;;4.55;;
59189;SDS011;50749;51.636;4.948;2023-11-18T05:25:44;7.57;;;3.38;;
59189;SDS011;50749;51.636;4.948;2023-11-18T05:28:10;7.13;;;4.00;;
59189;SDS011;50749;51.636;4.948;2023-11-18T05:30:36;7.93;;;3.95;;
59189;SDS011;50749;51.636;4.948;2023-11-18T05:33:03;7.82;;;3.75;;
59189;SDS011;50749;51.636;4.948;2023-11-18T05:35:33;8.77;;;4.57;;
59189;SDS011;50749;51.636;4.948;2023-11-18T05:38:00;6.90;;;3.78;;
59189;SDS011;50749;51.636;4.948;2023-11-18T05:40:28;6.43;;;3.53;;
59189;SDS011;50749;51.636;4.948;2023-11-18T05:42:55;9.07;;;3.60;;
59189;SDS011;50749;51.636;4.948;2023-11-18T05:45:21;7.47;;;3.78;;
59189;SDS011;50749;51.636;4.948;2023-11-18T05:48:02;6.75;;;3.83;;
59189;SDS011;50749;51.636;4.948;2023-11-18T05:50:28;9.50;;;3.92;;
59189;SDS011;50749;51.636;4.948;2023-11-18T05:52:54;4.88;;;3.40;;
59189;SDS011;50749;51.636;4.948;2023-11-18T05:55:21;8.23;;;4.15;;
59189;SDS011;50749;51.636;4.948;2023-11-18T05:57:46;6.25;;;4.15;;
59189;SDS011;50749;51.636;4.948;2023-11-18T06:00:13;9.20;;;2.90;;
59189;SDS011;50749;51.636;4.948;2023-11-18T06:02:44;4.60;;;2.72;;
59189;SDS011;50749;51.636;4.948;2023-11-18T06:05:10;6.70;;;3.13;;
59189;SDS011;50749;51.636;4.948;2023-11-18T06:07:38;8.75;;;4.15;;
59189;SDS011;50749;51.636;4.948;2023-11-18T06:10:05;5.72;;;3.22;;
59189;SDS011;50749;51.636;4.948;2023-11-18T06:12:32;5.95;;;2.67;;
59189;SDS011;50749;51.636;4.948;2023-11-18T06:14:59;9.02;;;2.50;;
59189;SDS011;50749;51.636;4.948;2023-11-18T06:17:24;4.97;;;2.50;;
59189;SDS011;50749;51.636;4.948;2023-11-18T06:19:50;5.57;;;2.70;;
59189;SDS011;50749;51.636;4.948;2023-11-18T06:22:16;4.18;;;2.28;;
59189;SDS011;50749;51.636;4.948;2023-11-18T06:24:42;6.25;;;2.67;;
59189;SDS011;50749;51.636;4.948;2023-11-18T06:27:08;6.78;;;2.45;;
59189;SDS011;50749;51.636;4.948;2023-11-18T06:29:34;3.17;;;2.10;;
59189;SDS011;50749;51.636;4.948;2023-11-18T06:32:00;4.47;;;2.33;;
59189;SDS011;50749;51.636;4.948;2023-11-18T06:34:26;6.90;;;2.40;;
59189;SDS011;50749;51.636;4.948;2023-11-18T06:36:52;6.07;;;2.08;;
59189;SDS011;50749;51.636;4.948;2023-11-18T06:39:19;3.47;;;1.92;;
59189;SDS011;50749;51.636;4.948;2023-11-18T06:41:54;5.57;;;2.10;;
59189;SDS011;50749;51.636;4.948;2023-11-18T06:44:21;4.00;;;1.83;;
59189;SDS011;50749;51.636;4.948;2023-11-18T06:46:49;4.47;;;1.90;;
59189;SDS011;50749;51.636;4.948;2023-11-18T06:49:16;3.70;;;2.03;;
59189;SDS011;50749;51.636;4.948;2023-11-18T06:51:42;4.93;;;2.00;;
59189;SDS011;50749;51.636;4.948;2023-11-18T06:54:08;5.20;;;2.10;;
59189;SDS011;50749;51.636;4.948;2023-11-18T06:56:38;4.80;;;1.80;;
59189;SDS011;50749;51.636;4.948;2023-11-18T06:59:08;3.88;;;2.03;;
59189;SDS011;50749;51.636;4.948;2023-11-18T07:01:40;3.67;;;1.88;;
59189;SDS011;50749;51.636;4.948;2023-11-18T07:04:09;6.55;;;1.90;;
59189;SDS011;50749;51.636;4.948;2023-11-18T07:06:35;3.40;;;1.75;;
59189;SDS011;50749;51.636;4.948;2023-11-18T07:09:04;5.47;;;2.00;;
59189;SDS011;50749;51.636;4.948;2023-11-18T07:11:38;3.30;;;1.60;;
59189;SDS011;50749;51.636;4.948;2023-11-18T07:14:05;5.55;;;1.58;;
59189;SDS011;50749;51.636;4.948;2023-11-18T07:16:30;3.88;;;1.60;;
59189;SDS011;50749;51.636;4.948;2023-11-18T07:18:56;4.47;;;1.58;;
59189;SDS011;50749;51.636;4.948;2023-11-18T07:21:22;3.85;;;1.60;;
59189;SDS011;50749;51.636;4.948;2023-11-18T07:23:48;3.92;;;1.65;;
59189;SDS011;50749;51.636;4.948;2023-11-18T07:26:13;5.18;;;2.25;;
59189;SDS011;50749;51.636;4.948;2023-11-18T07:28:40;2.45;;;1.40;;
59189;SDS011;50749;51.636;4.948;2023-11-18T07:31:06;3.60;;;1.55;;
59189;SDS011;50749;51.636;4.948;2023-11-18T07:33:33;3.05;;;1.67;;
59189;SDS011;50749;51.636;4.948;2023-11-18T07:35:59;3.00;;;1.47;;
59189;SDS011;50749;51.636;4.948;2023-11-18T07:38:25;5.15;;;1.92;;
59189;SDS011;50749;51.636;4.948;2023-11-18T07:40:52;2.30;;;1.20;;
59189;SDS011;50749;51.636;4.948;2023-11-18T07:43:22;3.13;;;1.50;;
59189;SDS011;50749;51.636;4.948;2023-11-18T07:45:48;2.45;;;1.60;;
59189;SDS011;50749;51.636;4.948;2023-11-18T07:48:19;5.28;;;1.75;;
59189;SDS011;50749;51.636;4.948;2023-11-18T07:50:46;3.45;;;1.27;;
59189;SDS011;50749;51.636;4.948;2023-11-18T07:53:15;5.32;;;1.25;;
59189;SDS011;50749;51.636;4.948;2023-11-18T07:55:41;2.50;;;1.20;;
59189;SDS011;50749;51.636;4.948;2023-11-18T07:58:07;2.58;;;1.30;;
59189;SDS011;50749;51.636;4.948;2023-11-18T08:00:40;4.47;;;1.60;;
59189;SDS011;50749;51.636;4.948;2023-11-18T08:03:08;5.63;;;1.40;;
59189;SDS011;50749;51.636;4.948;2023-11-18T08:05:39;6.05;;;1.42;;
59189;SDS011;50749;51.636;4.948;2023-11-18T08:08:06;3.05;;;1.20;;
59189;SDS011;50749;51.636;4.948;2023-11-18T08:10:33;3.20;;;1.27;;
59189;SDS011;50749;51.636;4.948;2023-11-18T08:13:06;4.07;;;1.33;;
59189;SDS011;50749;51.636;4.948;2023-11-18T08:15:39;3.42;;;1.23;;
59189;SDS011;50749;51.636;4.948;2023-11-18T08:18:07;4.85;;;1.40;;
59189;SDS011;50749;51.636;4.948;2023-11-18T08:20:35;3.40;;;1.50;;
59189;SDS011;50749;51.636;4.948;2023-11-18T08:23:02;4.15;;;1.40;;
59189;SDS011;50749;51.636;4.948;2023-11-18T08:25:27;2.65;;;1.20;;
59189;SDS011;50749;51.636;4.948;2023-11-18T08:27:53;3.55;;;1.48;;
59189;SDS011;50749;51.636;4.948;2023-11-18T08:30:19;3.90;;;1.30;;
59189;SDS011;50749;51.636;4.948;2023-11-18T08:32:46;4.32;;;1.30;;
59189;SDS011;50749;51.636;4.948;2023-11-18T08:35:12;2.45;;;1.23;;
59189;SDS011;50749;51.636;4.948;2023-11-18T08:37:42;2.97;;;1.15;;
59189;SDS011;50749;51.636;4.948;2023-11-18T08:40:08;6.85;;;1.95;;
59189;SDS011;50749;51.636;4.948;2023-11-18T08:42:45;4.22;;;1.50;;
59189;SDS011;50749;51.636;4.948;2023-11-18T08:45:21;3.22;;;1.23;;
59189;SDS011;50749;51.636;4.948;2023-11-18T08:47:53;2.90;;;1.45;;
59189;SDS011;50749;51.636;4.948;2023-11-18T08:50:20;5.43;;;1.27;;
59189;SDS011;50749;51.636;4.948;2023-11-18T08:52:49;5.70;;;1.30;;
59189;SDS011;50749;51.636;4.948;2023-11-18T08:55:19;3.58;;;1.27;;
59189;SDS011;50749;51.636;4.948;2023-11-18T08:57:47;2.65;;;1.63;;
59189;SDS011;50749;51.636;4.948;2023-11-18T09:00:23;4.55;;;1.35;;
59189;SDS011;50749;51.636;4.948;2023-11-18T09:03:10;7.25;;;3.08;;
59189;SDS011;50749;51.636;4.948;2023-11-18T09:05:46;3.05;;;1.30;;
59189;SDS011;50749;51.636;4.948;2023-11-18T09:08:25;2.10;;;1.02;;
59189;SDS011;50749;51.636;4.948;2023-11-18T09:10:53;4.32;;;1.48;;
59189;SDS011;50749;51.636;4.948;2023-11-18T09:13:20;6.47;;;1.50;;
59189;SDS011;50749;51.636;4.948;2023-11-18T09:15:48;4.03;;;1.20;;
59189;SDS011;50749;51.636;4.948;2023-11-18T09:18:15;3.72;;;1.40;;
59189;SDS011;50749;51.636;4.948;2023-11-18T09:20:43;2.38;;;1.00;;
59189;SDS011;50749;51.636;4.948;2023-11-18T09:23:09;6.03;;;1.45;;
59189;SDS011;50749;51.636;4.948;2023-11-18T09:25:35;2.88;;;1.00;;
59189;SDS011;50749;51.636;4.948;2023-11-18T09:28:01;5.07;;;1.40;;
59189;SDS011;50749;51.636;4.948;2023-11-18T09:30:28;2.42;;;1.20;;
59189;SDS011;50749;51.636;4.948;2023-11-18T09:32:55;4.00;;;1.35;;
59189;SDS011;50749;51.636;4.948;2023-11-18T09:35:20;3.30;;;1.08;;
59189;SDS011;50749;51.636;4.948;2023-11-18T09:37:46;4.55;;;1.70;;
59189;SDS011;50749;51.636;4.948;2023-11-18T09:40:13;3.42;;;1.10;;
59189;SDS011;50749;51.636;4.948;2023-11-18T09:42:40;2.53;;;1.00;;
59189;SDS011;50749;51.636;4.948;2023-11-18T09:45:09;2.63;;;1.15;;
59189;SDS011;50749;51.636;4.948;2023-11-18T09:47:45;3.95;;;1.13;;
59189;SDS011;50749;51.636;4.948;2023-11-18T09:50:17;3.20;;;1.25;;
59189;SDS011;50749;51.636;4.948;2023-11-18T09:52:49;2.53;;;0.82;;
59189;SDS011;50749;51.636;4.948;2023-11-18T09:55:25;4.13;;;1.05;;
59189;SDS011;50749;51.636;4.948;2023-11-18T09:58:04;2.65;;;1.40;;
59189;SDS011;50749;51.636;4.948;2023-11-18T10:00:38;1.60;;;0.80;;
59189;SDS011;50749;51.636;4.948;2023-11-18T10:03:07;3.10;;;0.88;;
59189;SDS011;50749;51.636;4.948;2023-11-18T10:05:35;3.95;;;1.23;;
59189;SDS011;50749;51.636;4.948;2023-11-18T10:08:02;2.65;;;1.15;;
59189;SDS011;50749;51.636;4.948;2023-11-18T10:10:31;2.40;;;1.10;;
59189;SDS011;50749;51.636;4.948;2023-11-18T10:13:02;2.65;;;0.90;;
59189;SDS011;50749;51.636;4.948;2023-11-18T10:15:33;1.73;;;0.98;;
59189;SDS011;50749;51.636;4.948;2023-11-18T10:18:00;2.83;;;1.02;;
59189;SDS011;50749;51.636;4.948;2023-11-18T10:23:07;3.25;;;0.80;;
59189;SDS011;50749;51.636;4.948;2023-11-18T10:25:36;4.30;;;1.00;;
59189;SDS011;50749;51.636;4.948;2023-11-18T10:28:06;2.92;;;0.80;;
59189;SDS011;50749;51.636;4.948;2023-11-18T10:30:44;3.45;;;0.98;;
59189;SDS011;50749;51.636;4.948;2023-11-18T10:33:13;3.67;;;1.02;;
59189;SDS011;50749;51.636;4.948;2023-11-18T10:35:48;4.35;;;0.93;;
59189;SDS011;50749;51.636;4.948;2023-11-18T10:38:17;2.95;;;1.10;;
59189;SDS011;50749;51.636;4.948;2023-11-18T10:40:43;3.45;;;1.15;;
59189;SDS011;50749;51.636;4.948;2023-11-18T10:43:09;5.13;;;1.23;;
59189;SDS011;50749;51.636;4.948;2023-11-18T10:45:35;2.72;;;0.80;;
59189;SDS011;50749;51.636;4.948;2023-11-18T10:48:05;4.07;;;1.10;;
59189;SDS011;50749;51.636;4.948;2023-11-18T10:50:31;3.63;;;1.02;;
59189;SDS011;50749;51.636;4.948;2023-11-18T10:52:59;2.60;;;0.88;;
59189;SDS011;50749;51.636;4.948;2023-11-18T10:55:36;4.43;;;1.30;;
59189;SDS011;50749;51.636;4.948;2023-11-18T10:58:02;3.53;;;0.95;;
59189;SDS011;50749;51.636;4.948;2023-11-18T11:00:45;0.85;;;0.60;;
59189;SDS011;50749;51.636;4.948;2023-11-18T11:03:15;2.85;;;0.90;;
59189;SDS011;50749;51.636;4.948;2023-11-18T11:05:41;1.48;;;0.90;;
59189;SDS011;50749;51.636;4.948;2023-11-18T11:08:11;3.70;;;0.88;;
59189;SDS011;50749;51.636;4.948;2023-11-18T11:10:44;3.55;;;0.80;;
59189;SDS011;50749;51.636;4.948;2023-11-18T11:13:10;3.67;;;0.88;;
59189;SDS011;50749;51.636;4.948;2023-11-18T11:15:41;4.07;;;1.00;;
59189;SDS011;50749;51.636;4.948;2023-11-18T11:18:11;3.22;;;1.10;;
59189;SDS011;50749;51.636;4.948;2023-11-18T11:20:55;3.70;;;0.90;;
59189;SDS011;50749;51.636;4.948;2023-11-18T11:28:54;10.48;;;1.02;;
59189;SDS011;50749;51.636;4.948;2023-11-18T11:31:39;5.30;;;1.05;;
59189;SDS011;50749;51.636;4.948;2023-11-18T11:34:20;1.80;;;0.93;;
59189;SDS011;50749;51.636;4.948;2023-11-18T11:36:51;2.35;;;0.80;;
59189;SDS011;50749;51.636;4.948;2023-11-18T11:39:18;2.15;;;0.60;;
59189;SDS011;50749;51.636;4.948;2023-11-18T11:41:51;3.45;;;1.10;;
59189;SDS011;50749;51.636;4.948;2023-11-18T11:44:20;4.15;;;1.05;;
59189;SDS011;50749;51.636;4.948;2023-11-18T11:46:46;2.10;;;0.77;;
59189;SDS011;50749;51.636;4.948;2023-11-18T11:49:21;1.55;;;0.75;;
59189;SDS011;50749;51.636;4.948;2023-11-18T11:52:03;3.03;;;0.82;;
59189;SDS011;50749;51.636;4.948;2023-11-18T11:54:40;1.85;;;0.90;;
59189;SDS011;50749;51.636;4.948;2023-11-18T11:57:10;11.02;;;0.90;;
59189;SDS011;50749;51.636;4.948;2023-11-18T12:02:09;2.28;;;0.70;;
59189;SDS011;50749;51.636;4.948;2023-11-18T12:04:36;2.90;;;0.93;;
59189;SDS011;50749;51.636;4.948;2023-11-18T12:07:08;3.67;;;0.85;;
59189;SDS011;50749;51.636;4.948;2023-11-18T12:09:35;2.00;;;0.85;;
59189;SDS011;50749;51.636;4.948;2023-11-18T12:12:16;2.25;;;0.82;;
59189;SDS011;50749;51.636;4.948;2023-11-18T12:14:51;1.95;;;0.90;;
59189;SDS011;50749;51.636;4.948;2023-11-18T12:17:17;3.88;;;0.70;;
59189;SDS011;50749;51.636;4.948;2023-11-18T12:19:47;2.10;;;0.90;;
59189;SDS011;50749;51.636;4.948;2023-11-18T12:22:17;2.60;;;1.27;;
59189;SDS011;50749;51.636;4.948;2023-11-18T12:32:58;1.38;;;0.60;;
59189;SDS011;50749;51.636;4.948;2023-11-18T12:44:16;2.15;;;0.90;;
59189;SDS011;50749;51.636;4.948;2023-11-18T12:46:48;1.23;;;0.75;;
59189;SDS011;50749;51.636;4.948;2023-11-18T12:49:29;1.38;;;0.50;;
59189;SDS011;50749;51.636;4.948;2023-11-18T12:51:55;5.07;;;0.82;;
59189;SDS011;50749;51.636;4.948;2023-11-18T12:54:24;1.40;;;0.50;;
59189;SDS011;50749;51.636;4.948;2023-11-18T12:56:54;1.35;;;0.70;;
59189;SDS011;50749;51.636;4.948;2023-11-18T12:59:20;1.42;;;0.60;;
59189;SDS011;50749;51.636;4.948;2023-11-18T13:01:47;0.88;;;0.52;;
59189;SDS011;50749;51.636;4.948;2023-11-18T13:04:25;2.00;;;0.70;;
59189;SDS011;50749;51.636;4.948;2023-11-18T13:06:52;1.58;;;0.70;;
59189;SDS011;50749;51.636;4.948;2023-11-18T13:09:21;3.42;;;0.80;;
59189;SDS011;50749;51.636;4.948;2023-11-18T13:11:52;1.35;;;0.70;;
59189;SDS011;50749;51.636;4.948;2023-11-18T13:14:21;0.60;;;0.45;;
59189;SDS011;50749;51.636;4.948;2023-11-18T13:16:54;3.72;;;1.00;;
59189;SDS011;50749;51.636;4.948;2023-11-18T13:19:27;0.88;;;0.60;;
59189;SDS011;50749;51.636;4.948;2023-11-18T13:22:00;1.52;;;0.70;;
59189;SDS011;50749;51.636;4.948;2023-11-18T13:24:29;1.23;;;0.60;;
59189;SDS011;50749;51.636;4.948;2023-11-18T13:26:56;0.88;;;0.55;;
59189;SDS011;50749;51.636;4.948;2023-11-18T13:29:22;1.15;;;0.68;;
59189;SDS011;50749;51.636;4.948;2023-11-18T13:31:50;1.95;;;0.50;;
59189;SDS011;50749;51.636;4.948;2023-11-18T13:34:19;1.92;;;0.60;;
59189;SDS011;50749;51.636;4.948;2023-11-18T13:36:49;1.17;;;0.60;;
59189;SDS011;50749;51.636;4.948;2023-11-18T13:39:17;1.63;;;0.70;;
59189;SDS011;50749;51.636;4.948;2023-11-18T13:41:44;1.42;;;0.50;;
59189;SDS011;50749;51.636;4.948;2023-11-18T13:44:10;1.05;;;0.50;;
59189;SDS011;50749;51.636;4.948;2023-11-18T13:46:38;0.88;;;0.52;;
59189;SDS011;50749;51.636;4.948;2023-11-18T13:49:07;1.25;;;0.63;;
59189;SDS011;50749;51.636;4.948;2023-11-18T13:51:33;0.95;;;0.50;;
59189;SDS011;50749;51.636;4.948;2023-11-18T13:54:01;1.15;;;0.60;;
59189;SDS011;50749;51.636;4.948;2023-11-18T13:56:28;1.15;;;0.52;;
59189;SDS011;50749;51.636;4.948;2023-11-18T13:58:55;0.70;;;0.50;;
59189;SDS011;50749;51.636;4.948;2023-11-18T14:01:21;1.85;;;0.50;;
59189;SDS011;50749;51.636;4.948;2023-11-18T14:03:46;1.45;;;0.57;;
59189;SDS011;50749;51.636;4.948;2023-11-18T14:06:13;3.47;;;0.50;;
59189;SDS011;50749;51.636;4.948;2023-11-18T14:08:45;0.77;;;0.40;;
59189;SDS011;50749;51.636;4.948;2023-11-18T14:11:11;1.05;;;0.45;;
59189;SDS011;50749;51.636;4.948;2023-11-18T14:13:37;0.90;;;0.50;;
59189;SDS011;50749;51.636;4.948;2023-11-18T14:16:03;2.17;;;0.52;;
59189;SDS011;50749;51.636;4.948;2023-11-18T14:18:29;1.23;;;0.40;;
59189;SDS011;50749;51.636;4.948;2023-11-18T14:20:55;0.47;;;0.30;;
59189;SDS011;50749;51.636;4.948;2023-11-18T14:23:22;1.08;;;0.47;;
59189;SDS011;50749;51.636;4.948;2023-11-18T14:25:48;6.85;;;0.65;;
59189;SDS011;50749;51.636;4.948;2023-11-18T14:28:14;2.05;;;0.88;;
59189;SDS011;50749;51.636;4.948;2023-11-18T14:30:40;1.08;;;0.57;;
59189;SDS011;50749;51.636;4.948;2023-11-18T14:33:07;1.08;;;0.40;;
59189;SDS011;50749;51.636;4.948;2023-11-18T14:35:33;1.70;;;0.50;;
59189;SDS011;50749;51.636;4.948;2023-11-18T14:37:59;2.28;;;0.52;;
59189;SDS011;50749;51.636;4.948;2023-11-18T14:40:26;5.90;;;0.45;;
59189;SDS011;50749;51.636;4.948;2023-11-18T14:42:53;2.90;;;0.60;;
59189;SDS011;50749;51.636;4.948;2023-11-18T14:45:20;2.13;;;0.65;;
59189;SDS011;50749;51.636;4.948;2023-11-18T14:47:46;3.95;;;0.80;;
59189;SDS011;50749;51.636;4.948;2023-11-18T14:50:13;1.45;;;0.57;;
59189;SDS011;50749;51.636;4.948;2023-11-18T14:52:46;2.08;;;0.60;;
59189;SDS011;50749;51.636;4.948;2023-11-18T14:55:14;1.08;;;0.55;;
59189;SDS011;50749;51.636;4.948;2023-11-18T14:57:42;1.17;;;0.55;;
59189;SDS011;50749;51.636;4.948;2023-11-18T15:00:12;1.33;;;0.60;;
59189;SDS011;50749;51.636;4.948;2023-11-18T15:02:47;0.82;;;0.50;;
59189;SDS011;50749;51.636;4.948;2023-11-18T15:05:14;1.15;;;0.55;;
59189;SDS011;50749;51.636;4.948;2023-11-18T15:07:47;0.82;;;0.50;;
59189;SDS011;50749;51.636;4.948;2023-11-18T15:10:15;1.90;;;0.68;;
59189;SDS011;50749;51.636;4.948;2023-11-18T15:12:48;0.85;;;0.52;;
59189;SDS011;50749;51.636;4.948;2023-11-18T15:15:19;1.10;;;0.60;;
59189;SDS011;50749;51.636;4.948;2023-11-18T15:17:46;4.30;;;0.63;;
59189;SDS011;50749;51.636;4.948;2023-11-18T15:20:17;1.13;;;0.40;;
59189;SDS011;50749;51.636;4.948;2023-11-18T15:22:48;1.38;;;0.60;;
59189;SDS011;50749;51.636;4.948;2023-11-18T15:25:14;0.82;;;0.45;;